sensor_id;sensor_type;location;lat;lon;timestamp;temperature;humidity
28189;DHT22;15471;51.166;4.470;2022-12-15T00:01:00;-4.20;99.90
28189;DHT22;15471;51.166;4.470;2022-12-15T00:03:45;-4.20;99.90
28189;DHT22;15471;51.166;4.470;2022-12-15T00:06:30;-4.30;99.90
28189;DHT22;15471;51.166;4.470;2022-12-15T00:09:17;-4.30;99.90
28189;DHT22;15471;51.166;4.470;2022-12-15T00:12:02;-4.30;99.90
28189;DHT22;15471;51.166;4.470;2022-12-15T00:14:46;-4.30;99.90
28189;DHT22;15471;51.166;4.470;2022-12-15T00:17:30;-4.30;99.90
28189;DHT22;15471;51.166;4.470;2022-12-15T00:20:15;-4.40;99.90
28189;DHT22;15471;51.166;4.470;2022-12-15T00:23:12;-4.40;99.90
28189;DHT22;15471;51.166;4.470;2022-12-15T00:25:57;-4.40;99.90
28189;DHT22;15471;51.166;4.470;2022-12-15T00:28:44;-4.40;99.90
28189;DHT22;15471;51.166;4.470;2022-12-15T00:31:28;-4.40;99.90
28189;DHT22;15471;51.166;4.470;2022-12-15T00:34:12;-4.40;99.90
28189;DHT22;15471;51.166;4.470;2022-12-15T00:36:56;-4.40;99.90
28189;DHT22;15471;51.166;4.470;2022-12-15T00:39:40;-4.50;99.90
28189;DHT22;15471;51.166;4.470;2022-12-15T00:42:07;-4.50;99.90
28189;DHT22;15471;51.166;4.470;2022-12-15T00:44:33;-4.50;99.90
28189;DHT22;15471;51.166;4.470;2022-12-15T00:46:59;-4.50;99.90
28189;DHT22;15471;51.166;4.470;2022-12-15T00:49:27;-4.50;99.90
28189;DHT22;15471;51.166;4.470;2022-12-15T00:52:13;-4.50;99.90
28189;DHT22;15471;51.166;4.470;2022-12-15T00:54:58;-4.50;99.90
28189;DHT22;15471;51.166;4.470;2022-12-15T00:57:45;-4.50;99.90
28189;DHT22;15471;51.166;4.470;2022-12-15T01:00:32;-4.50;99.90
28189;DHT22;15471;51.166;4.470;2022-12-15T01:03:23;-4.50;99.90
28189;DHT22;15471;51.166;4.470;2022-12-15T01:06:12;-4.50;99.90
28189;DHT22;15471;51.166;4.470;2022-12-15T01:08:57;-4.50;99.90
28189;DHT22;15471;51.166;4.470;2022-12-15T01:11:42;-4.40;99.90
28189;DHT22;15471;51.166;4.470;2022-12-15T01:14:27;-4.50;99.90
28189;DHT22;15471;51.166;4.470;2022-12-15T01:17:12;-4.50;99.90
28189;DHT22;15471;51.166;4.470;2022-12-15T01:20:00;-4.50;99.90
28189;DHT22;15471;51.166;4.470;2022-12-15T01:22:50;-4.60;99.90
28189;DHT22;15471;51.166;4.470;2022-12-15T01:25:19;-4.60;99.90
28189;DHT22;15471;51.166;4.470;2022-12-15T01:27:45;-4.50;99.90
28189;DHT22;15471;51.166;4.470;2022-12-15T01:30:14;-4.60;99.90
28189;DHT22;15471;51.166;4.470;2022-12-15T01:32:41;-4.60;99.90
28189;DHT22;15471;51.166;4.470;2022-12-15T01:35:07;-4.60;99.90
28189;DHT22;15471;51.166;4.470;2022-12-15T01:37:33;-4.60;99.90
28189;DHT22;15471;51.166;4.470;2022-12-15T01:39:59;-4.60;99.90
28189;DHT22;15471;51.166;4.470;2022-12-15T01:42:43;-4.60;99.90
28189;DHT22;15471;51.166;4.470;2022-12-15T01:48:07;-4.50;99.90
28189;DHT22;15471;51.166;4.470;2022-12-15T01:50:39;-4.50;99.90
28189;DHT22;15471;51.166;4.470;2022-12-15T01:53:08;-4.50;99.90
28189;DHT22;15471;51.166;4.470;2022-12-15T01:55:34;-4.50;99.90
28189;DHT22;15471;51.166;4.470;2022-12-15T01:58:04;-4.50;99.90
28189;DHT22;15471;51.166;4.470;2022-12-15T02:00:31;-4.40;99.90
28189;DHT22;15471;51.166;4.470;2022-12-15T02:02:58;-4.40;99.90
28189;DHT22;15471;51.166;4.470;2022-12-15T02:05:26;-4.40;99.90
28189;DHT22;15471;51.166;4.470;2022-12-15T02:07:53;-4.50;99.90
28189;DHT22;15471;51.166;4.470;2022-12-15T02:10:19;-4.50;99.90
28189;DHT22;15471;51.166;4.470;2022-12-15T02:12:54;-4.50;99.90
28189;DHT22;15471;51.166;4.470;2022-12-15T02:18:15;-4.50;99.90
28189;DHT22;15471;51.166;4.470;2022-12-15T02:20:49;-4.50;99.90
28189;DHT22;15471;51.166;4.470;2022-12-15T02:26:12;-4.50;99.90
28189;DHT22;15471;51.166;4.470;2022-12-15T02:31:38;-4.50;99.90
28189;DHT22;15471;51.166;4.470;2022-12-15T02:36:51;-4.50;99.90
28189;DHT22;15471;51.166;4.470;2022-12-15T02:39:19;-4.50;99.90
28189;DHT22;15471;51.166;4.470;2022-12-15T02:41:46;-4.50;99.90
28189;DHT22;15471;51.166;4.470;2022-12-15T02:52:37;-4.50;99.90
28189;DHT22;15471;51.166;4.470;2022-12-15T02:58:07;-4.50;99.90
28189;DHT22;15471;51.166;4.470;2022-12-15T03:00:40;-4.50;99.90
28189;DHT22;15471;51.166;4.470;2022-12-15T03:03:07;-4.50;99.90
28189;DHT22;15471;51.166;4.470;2022-12-15T03:05:33;-4.50;99.90
28189;DHT22;15471;51.166;4.470;2022-12-15T03:07:59;-4.50;99.90
28189;DHT22;15471;51.166;4.470;2022-12-15T03:10:26;-4.50;99.90
28189;DHT22;15471;51.166;4.470;2022-12-15T03:12:52;-4.50;99.90
28189;DHT22;15471;51.166;4.470;2022-12-15T03:15:19;-4.50;99.90
28189;DHT22;15471;51.166;4.470;2022-12-15T03:17:45;-4.60;99.90
28189;DHT22;15471;51.166;4.470;2022-12-15T03:20:11;-4.60;99.90
28189;DHT22;15471;51.166;4.470;2022-12-15T03:22:37;-4.60;99.90
28189;DHT22;15471;51.166;4.470;2022-12-15T03:25:03;-4.70;99.90
28189;DHT22;15471;51.166;4.470;2022-12-15T03:27:34;-4.70;99.90
28189;DHT22;15471;51.166;4.470;2022-12-15T03:30:00;-4.70;99.90
28189;DHT22;15471;51.166;4.470;2022-12-15T03:32:26;-4.80;99.90
28189;DHT22;15471;51.166;4.470;2022-12-15T03:34:52;-4.80;99.90
28189;DHT22;15471;51.166;4.470;2022-12-15T03:37:21;-4.70;99.90
28189;DHT22;15471;51.166;4.470;2022-12-15T03:39:46;-4.70;99.90
28189;DHT22;15471;51.166;4.470;2022-12-15T03:42:12;-4.70;99.90
28189;DHT22;15471;51.166;4.470;2022-12-15T03:44:38;-4.60;99.90
28189;DHT22;15471;51.166;4.470;2022-12-15T03:47:04;-4.70;99.90
28189;DHT22;15471;51.166;4.470;2022-12-15T03:49:30;-4.70;99.90
28189;DHT22;15471;51.166;4.470;2022-12-15T03:51:56;-4.70;99.90
28189;DHT22;15471;51.166;4.470;2022-12-15T03:54:21;-4.70;99.90
28189;DHT22;15471;51.166;4.470;2022-12-15T03:56:47;-4.70;99.90
28189;DHT22;15471;51.166;4.470;2022-12-15T03:59:13;-4.80;99.90
28189;DHT22;15471;51.166;4.470;2022-12-15T04:01:44;-4.70;99.90
28189;DHT22;15471;51.166;4.470;2022-12-15T04:04:11;-4.80;99.90
28189;DHT22;15471;51.166;4.470;2022-12-15T04:06:36;-4.90;99.90
28189;DHT22;15471;51.166;4.470;2022-12-15T04:09:02;-4.90;99.90
28189;DHT22;15471;51.166;4.470;2022-12-15T04:11:28;-4.90;99.90
28189;DHT22;15471;51.166;4.470;2022-12-15T04:13:54;-4.90;99.90
28189;DHT22;15471;51.166;4.470;2022-12-15T04:16:19;-4.90;99.90
28189;DHT22;15471;51.166;4.470;2022-12-15T04:18:45;-4.90;99.90
28189;DHT22;15471;51.166;4.470;2022-12-15T04:21:11;-4.90;99.90
28189;DHT22;15471;51.166;4.470;2022-12-15T04:23:37;-5.10;99.90
28189;DHT22;15471;51.166;4.470;2022-12-15T04:26:03;-5.10;99.90
28189;DHT22;15471;51.166;4.470;2022-12-15T04:28:48;-5.10;99.90
28189;DHT22;15471;51.166;4.470;2022-12-15T04:31:33;-5.10;99.90
28189;DHT22;15471;51.166;4.470;2022-12-15T04:34:21;-5.20;99.90
28189;DHT22;15471;51.166;4.470;2022-12-15T04:37:09;-5.10;99.90
28189;DHT22;15471;51.166;4.470;2022-12-15T04:39:55;-5.20;99.90
28189;DHT22;15471;51.166;4.470;2022-12-15T04:42:42;-5.20;99.90
28189;DHT22;15471;51.166;4.470;2022-12-15T04:45:28;-5.20;99.90
28189;DHT22;15471;51.166;4.470;2022-12-15T04:48:12;-5.10;99.90
28189;DHT22;15471;51.166;4.470;2022-12-15T04:50:57;-5.20;99.90
28189;DHT22;15471;51.166;4.470;2022-12-15T04:53:42;-5.20;99.90
28189;DHT22;15471;51.166;4.470;2022-12-15T04:56:27;-5.10;99.90
28189;DHT22;15471;51.166;4.470;2022-12-15T04:59:11;-5.10;99.90
28189;DHT22;15471;51.166;4.470;2022-12-15T05:01:55;-5.10;99.90
28189;DHT22;15471;51.166;4.470;2022-12-15T05:04:40;-5.20;99.90
28189;DHT22;15471;51.166;4.470;2022-12-15T05:07:24;-5.20;99.90
28189;DHT22;15471;51.166;4.470;2022-12-15T05:10:09;-5.20;99.90
28189;DHT22;15471;51.166;4.470;2022-12-15T05:12:53;-5.20;99.90
28189;DHT22;15471;51.166;4.470;2022-12-15T05:15:38;-5.20;99.90
28189;DHT22;15471;51.166;4.470;2022-12-15T05:18:22;-5.30;99.90
28189;DHT22;15471;51.166;4.470;2022-12-15T05:21:07;-5.30;99.90
28189;DHT22;15471;51.166;4.470;2022-12-15T05:23:51;-5.30;99.90
28189;DHT22;15471;51.166;4.470;2022-12-15T05:26:35;-5.30;99.90
28189;DHT22;15471;51.166;4.470;2022-12-15T05:29:20;-5.40;99.90
28189;DHT22;15471;51.166;4.470;2022-12-15T05:32:06;-5.40;99.90
28189;DHT22;15471;51.166;4.470;2022-12-15T05:34:34;-5.40;99.90
28189;DHT22;15471;51.166;4.470;2022-12-15T05:37:01;-5.40;99.90
28189;DHT22;15471;51.166;4.470;2022-12-15T05:39:28;-5.40;99.90
28189;DHT22;15471;51.166;4.470;2022-12-15T05:41:55;-5.40;99.90
28189;DHT22;15471;51.166;4.470;2022-12-15T05:44:22;-5.40;99.90
28189;DHT22;15471;51.166;4.470;2022-12-15T05:46:48;-5.40;99.90
28189;DHT22;15471;51.166;4.470;2022-12-15T05:49:15;-5.40;99.90
28189;DHT22;15471;51.166;4.470;2022-12-15T05:51:42;-5.40;99.90
28189;DHT22;15471;51.166;4.470;2022-12-15T05:54:10;-5.30;99.90
28189;DHT22;15471;51.166;4.470;2022-12-15T05:56:37;-5.40;99.90
28189;DHT22;15471;51.166;4.470;2022-12-15T05:59:03;-5.30;99.90
28189;DHT22;15471;51.166;4.470;2022-12-15T06:01:30;-5.40;99.90
28189;DHT22;15471;51.166;4.470;2022-12-15T06:03:57;-5.40;99.90
28189;DHT22;15471;51.166;4.470;2022-12-15T06:06:26;-5.30;99.90
28189;DHT22;15471;51.166;4.470;2022-12-15T06:08:53;-5.30;99.90
28189;DHT22;15471;51.166;4.470;2022-12-15T06:11:19;-5.20;99.90
28189;DHT22;15471;51.166;4.470;2022-12-15T06:13:45;-5.20;99.90
28189;DHT22;15471;51.166;4.470;2022-12-15T06:16:14;-5.20;99.90
28189;DHT22;15471;51.166;4.470;2022-12-15T06:18:45;-5.20;99.90
28189;DHT22;15471;51.166;4.470;2022-12-15T06:21:13;-5.20;99.90
28189;DHT22;15471;51.166;4.470;2022-12-15T06:23:40;-5.20;99.90
28189;DHT22;15471;51.166;4.470;2022-12-15T06:26:11;-5.20;99.90
28189;DHT22;15471;51.166;4.470;2022-12-15T06:28:37;-5.20;99.90
28189;DHT22;15471;51.166;4.470;2022-12-15T06:31:05;-5.20;99.90
28189;DHT22;15471;51.166;4.470;2022-12-15T06:33:31;-5.20;99.90
28189;DHT22;15471;51.166;4.470;2022-12-15T06:36:04;-5.20;99.90
28189;DHT22;15471;51.166;4.470;2022-12-15T06:38:30;-5.20;99.90
28189;DHT22;15471;51.166;4.470;2022-12-15T06:40:58;-5.20;99.90
28189;DHT22;15471;51.166;4.470;2022-12-15T06:43:27;-5.30;99.90
28189;DHT22;15471;51.166;4.470;2022-12-15T06:45:54;-5.30;99.90
28189;DHT22;15471;51.166;4.470;2022-12-15T06:48:21;-5.30;99.90
28189;DHT22;15471;51.166;4.470;2022-12-15T06:50:47;-5.30;99.90
28189;DHT22;15471;51.166;4.470;2022-12-15T06:53:14;-5.30;99.90
28189;DHT22;15471;51.166;4.470;2022-12-15T06:55:40;-5.30;99.90
28189;DHT22;15471;51.166;4.470;2022-12-15T06:58:07;-5.30;99.90
28189;DHT22;15471;51.166;4.470;2022-12-15T07:00:33;-5.20;99.90
28189;DHT22;15471;51.166;4.470;2022-12-15T07:03:02;-5.30;99.90
28189;DHT22;15471;51.166;4.470;2022-12-15T07:05:28;-5.30;99.90
28189;DHT22;15471;51.166;4.470;2022-12-15T07:07:54;-5.30;99.90
28189;DHT22;15471;51.166;4.470;2022-12-15T07:10:20;-5.20;99.90
28189;DHT22;15471;51.166;4.470;2022-12-15T07:12:46;-5.20;99.90
28189;DHT22;15471;51.166;4.470;2022-12-15T07:15:11;-5.20;99.90
28189;DHT22;15471;51.166;4.470;2022-12-15T07:17:37;-5.20;99.90
28189;DHT22;15471;51.166;4.470;2022-12-15T07:20:04;-5.30;99.90
28189;DHT22;15471;51.166;4.470;2022-12-15T07:22:30;-5.30;99.90
28189;DHT22;15471;51.166;4.470;2022-12-15T07:24:56;-5.30;99.90
28189;DHT22;15471;51.166;4.470;2022-12-15T07:27:21;-5.30;99.90
28189;DHT22;15471;51.166;4.470;2022-12-15T07:29:47;-5.30;99.90
28189;DHT22;15471;51.166;4.470;2022-12-15T07:32:13;-5.20;99.90
28189;DHT22;15471;51.166;4.470;2022-12-15T07:34:43;-5.20;99.90
28189;DHT22;15471;51.166;4.470;2022-12-15T07:37:09;-5.20;99.90
28189;DHT22;15471;51.166;4.470;2022-12-15T07:39:34;-5.20;99.90
28189;DHT22;15471;51.166;4.470;2022-12-15T07:42:03;-5.10;99.90
28189;DHT22;15471;51.166;4.470;2022-12-15T07:44:29;-5.20;99.90
28189;DHT22;15471;51.166;4.470;2022-12-15T07:46:56;-5.20;99.90
28189;DHT22;15471;51.166;4.470;2022-12-15T07:49:22;-5.10;99.90
28189;DHT22;15471;51.166;4.470;2022-12-15T07:51:48;-5.10;99.90
28189;DHT22;15471;51.166;4.470;2022-12-15T07:54:14;-5.10;99.90
28189;DHT22;15471;51.166;4.470;2022-12-15T07:56:40;-5.20;99.90
28189;DHT22;15471;51.166;4.470;2022-12-15T07:59:07;-5.20;99.90
28189;DHT22;15471;51.166;4.470;2022-12-15T08:01:33;-5.20;99.90
28189;DHT22;15471;51.166;4.470;2022-12-15T08:04:00;-5.20;99.90
28189;DHT22;15471;51.166;4.470;2022-12-15T08:06:26;-5.30;99.90
28189;DHT22;15471;51.166;4.470;2022-12-15T08:08:52;-5.20;99.90
28189;DHT22;15471;51.166;4.470;2022-12-15T08:11:20;-5.20;99.90
28189;DHT22;15471;51.166;4.470;2022-12-15T08:13:46;-5.10;99.90
28189;DHT22;15471;51.166;4.470;2022-12-15T08:16:12;-5.10;99.90
28189;DHT22;15471;51.166;4.470;2022-12-15T08:18:38;-5.00;99.90
28189;DHT22;15471;51.166;4.470;2022-12-15T08:21:05;-5.00;99.90
28189;DHT22;15471;51.166;4.470;2022-12-15T08:23:33;-4.90;99.90
28189;DHT22;15471;51.166;4.470;2022-12-15T08:26:10;-4.80;99.90
28189;DHT22;15471;51.166;4.470;2022-12-15T08:28:38;-4.70;99.90
28189;DHT22;15471;51.166;4.470;2022-12-15T08:31:16;-4.70;99.90
28189;DHT22;15471;51.166;4.470;2022-12-15T08:33:42;-4.60;99.90
28189;DHT22;15471;51.166;4.470;2022-12-15T08:36:10;-4.60;99.90
28189;DHT22;15471;51.166;4.470;2022-12-15T08:38:37;-4.50;99.90
28189;DHT22;15471;51.166;4.470;2022-12-15T08:41:21;-4.50;99.90
28189;DHT22;15471;51.166;4.470;2022-12-15T08:43:48;-4.40;99.90
28189;DHT22;15471;51.166;4.470;2022-12-15T08:46:19;-4.40;99.90
28189;DHT22;15471;51.166;4.470;2022-12-15T08:48:46;-4.30;99.90
28189;DHT22;15471;51.166;4.470;2022-12-15T08:51:12;-4.20;99.90
28189;DHT22;15471;51.166;4.470;2022-12-15T08:53:37;-4.20;99.90
28189;DHT22;15471;51.166;4.470;2022-12-15T08:56:09;-4.10;99.90
28189;DHT22;15471;51.166;4.470;2022-12-15T08:58:36;-4.00;99.90
28189;DHT22;15471;51.166;4.470;2022-12-15T09:01:11;-4.00;99.90
28189;DHT22;15471;51.166;4.470;2022-12-15T09:03:38;-3.90;99.90
28189;DHT22;15471;51.166;4.470;2022-12-15T09:06:06;-3.80;99.90
28189;DHT22;15471;51.166;4.470;2022-12-15T09:08:32;-3.80;99.90
28189;DHT22;15471;51.166;4.470;2022-12-15T09:10:59;-3.70;99.90
28189;DHT22;15471;51.166;4.470;2022-12-15T09:13:26;-3.70;99.90
28189;DHT22;15471;51.166;4.470;2022-12-15T09:15:56;-3.60;99.90
28189;DHT22;15471;51.166;4.470;2022-12-15T09:18:22;-3.40;99.90
28189;DHT22;15471;51.166;4.470;2022-12-15T09:20:48;-3.40;99.90
28189;DHT22;15471;51.166;4.470;2022-12-15T09:23:14;-3.20;99.90
28189;DHT22;15471;51.166;4.470;2022-12-15T09:25:40;-3.20;99.90
28189;DHT22;15471;51.166;4.470;2022-12-15T09:28:05;-3.10;99.90
28189;DHT22;15471;51.166;4.470;2022-12-15T09:30:31;-3.00;99.90
28189;DHT22;15471;51.166;4.470;2022-12-15T09:32:57;-2.90;99.90
28189;DHT22;15471;51.166;4.470;2022-12-15T09:35:26;-2.70;99.90
28189;DHT22;15471;51.166;4.470;2022-12-15T09:37:52;-2.50;99.90
28189;DHT22;15471;51.166;4.470;2022-12-15T09:40:18;-2.40;99.90
28189;DHT22;15471;51.166;4.470;2022-12-15T09:42:53;-2.10;99.90
28189;DHT22;15471;51.166;4.470;2022-12-15T09:45:25;-1.80;99.90
28189;DHT22;15471;51.166;4.470;2022-12-15T09:47:59;-1.60;99.90
28189;DHT22;15471;51.166;4.470;2022-12-15T09:50:29;-1.40;99.90
28189;DHT22;15471;51.166;4.470;2022-12-15T09:52:59;-1.30;99.90
28189;DHT22;15471;51.166;4.470;2022-12-15T09:55:31;-1.30;99.90
28189;DHT22;15471;51.166;4.470;2022-12-15T09:58:02;-1.30;99.90
28189;DHT22;15471;51.166;4.470;2022-12-15T10:06:14;-1.10;99.90
28189;DHT22;15471;51.166;4.470;2022-12-15T10:08:54;-1.20;99.90
28189;DHT22;15471;51.166;4.470;2022-12-15T10:14:05;-1.30;99.90
28189;DHT22;15471;51.166;4.470;2022-12-15T10:22:15;-1.30;99.90
28189;DHT22;15471;51.166;4.470;2022-12-15T10:24:44;-1.30;99.90
28189;DHT22;15471;51.166;4.470;2022-12-15T10:27:45;-1.30;99.90
28189;DHT22;15471;51.166;4.470;2022-12-15T10:30:12;-1.30;99.90
28189;DHT22;15471;51.166;4.470;2022-12-15T10:33:01;-1.30;99.90
28189;DHT22;15471;51.166;4.470;2022-12-15T10:35:33;-1.40;99.90
28189;DHT22;15471;51.166;4.470;2022-12-15T10:38:02;-1.40;99.90
28189;DHT22;15471;51.166;4.470;2022-12-15T10:40:47;-1.40;99.90
28189;DHT22;15471;51.166;4.470;2022-12-15T10:46:15;-1.40;99.90
28189;DHT22;15471;51.166;4.470;2022-12-15T10:48:48;-1.30;99.90
28189;DHT22;15471;51.166;4.470;2022-12-15T10:52:03;-1.30;99.90
28189;DHT22;15471;51.166;4.470;2022-12-15T10:54:23;-1.30;99.90
28189;DHT22;15471;51.166;4.470;2022-12-15T10:56:57;-1.20;99.90
28189;DHT22;15471;51.166;4.470;2022-12-15T10:59:36;-1.30;99.90
28189;DHT22;15471;51.166;4.470;2022-12-15T11:02:25;-1.20;99.90
28189;DHT22;15471;51.166;4.470;2022-12-15T11:04:56;-1.20;99.90
28189;DHT22;15471;51.166;4.470;2022-12-15T11:07:25;-1.20;99.90
28189;DHT22;15471;51.166;4.470;2022-12-15T11:09:58;-1.20;99.90
28189;DHT22;15471;51.166;4.470;2022-12-15T11:12:29;-1.10;99.90
28189;DHT22;15471;51.166;4.470;2022-12-15T11:17:55;-0.90;99.90
28189;DHT22;15471;51.166;4.470;2022-12-15T11:20:31;-0.80;99.90
28189;DHT22;15471;51.166;4.470;2022-12-15T11:23:15;-0.50;99.90
28189;DHT22;15471;51.166;4.470;2022-12-15T11:25:52;-0.50;99.90
28189;DHT22;15471;51.166;4.470;2022-12-15T11:28:31;-0.40;99.90
28189;DHT22;15471;51.166;4.470;2022-12-15T11:31:04;-0.20;99.90
28189;DHT22;15471;51.166;4.470;2022-12-15T11:33:32;-0.20;99.90
28189;DHT22;15471;51.166;4.470;2022-12-15T11:38:54;-0.20;99.90
28189;DHT22;15471;51.166;4.470;2022-12-15T11:41:30;-0.10;99.90
28189;DHT22;15471;51.166;4.470;2022-12-15T11:49:32;0.20;99.90
28189;DHT22;15471;51.166;4.470;2022-12-15T11:54:53;0.30;99.90
28189;DHT22;15471;51.166;4.470;2022-12-15T12:00:20;0.60;99.90
28189;DHT22;15471;51.166;4.470;2022-12-15T12:03:15;0.70;99.90
28189;DHT22;15471;51.166;4.470;2022-12-15T12:09:02;0.60;99.90
28189;DHT22;15471;51.166;4.470;2022-12-15T12:11:35;0.80;99.90
28189;DHT22;15471;51.166;4.470;2022-12-15T12:17:05;0.90;99.90
28189;DHT22;15471;51.166;4.470;2022-12-15T12:19:41;0.90;99.90
28189;DHT22;15471;51.166;4.470;2022-12-15T12:22:22;1.10;99.90
28189;DHT22;15471;51.166;4.470;2022-12-15T12:25:00;1.20;99.90
28189;DHT22;15471;51.166;4.470;2022-12-15T12:30:15;1.40;99.90
28189;DHT22;15471;51.166;4.470;2022-12-15T12:38:04;1.40;99.90
28189;DHT22;15471;51.166;4.470;2022-12-15T12:43:09;1.50;99.90
28189;DHT22;15471;51.166;4.470;2022-12-15T12:45:47;1.60;99.90
28189;DHT22;15471;51.166;4.470;2022-12-15T12:53:53;1.80;99.90
28189;DHT22;15471;51.166;4.470;2022-12-15T12:58:59;1.80;99.90
28189;DHT22;15471;51.166;4.470;2022-12-15T13:01:33;1.70;99.90
28189;DHT22;15471;51.166;4.470;2022-12-15T13:07:04;1.70;99.90
28189;DHT22;15471;51.166;4.470;2022-12-15T13:12:02;1.70;99.90
28189;DHT22;15471;51.166;4.470;2022-12-15T13:14:42;1.80;99.90
28189;DHT22;15471;51.166;4.470;2022-12-15T13:17:30;1.80;99.90
28189;DHT22;15471;51.166;4.470;2022-12-15T13:22:33;1.90;99.90
28189;DHT22;15471;51.166;4.470;2022-12-15T13:25:01;1.80;99.90
28189;DHT22;15471;51.166;4.470;2022-12-15T13:27:35;1.90;99.90
28189;DHT22;15471;51.166;4.470;2022-12-15T13:37:48;2.00;99.90
28189;DHT22;15471;51.166;4.470;2022-12-15T13:40:51;2.00;99.90
28189;DHT22;15471;51.166;4.470;2022-12-15T13:46:08;1.80;99.90
28189;DHT22;15471;51.166;4.470;2022-12-15T13:48:46;1.80;99.90
28189;DHT22;15471;51.166;4.470;2022-12-15T13:51:23;1.80;99.90
28189;DHT22;15471;51.166;4.470;2022-12-15T13:56:55;1.80;99.90
28189;DHT22;15471;51.166;4.470;2022-12-15T14:02:24;2.10;99.90
28189;DHT22;15471;51.166;4.470;2022-12-15T14:07:29;2.10;99.90
28189;DHT22;15471;51.166;4.470;2022-12-15T14:09:55;2.10;99.90
28189;DHT22;15471;51.166;4.470;2022-12-15T14:12:22;2.00;99.90
28189;DHT22;15471;51.166;4.470;2022-12-15T14:14:48;2.00;99.90
28189;DHT22;15471;51.166;4.470;2022-12-15T14:17:16;2.10;99.90
28189;DHT22;15471;51.166;4.470;2022-12-15T14:19:47;2.00;99.90
28189;DHT22;15471;51.166;4.470;2022-12-15T14:22:27;2.00;99.90
28189;DHT22;15471;51.166;4.470;2022-12-15T14:25:13;2.00;99.90
28189;DHT22;15471;51.166;4.470;2022-12-15T14:27:40;2.00;99.90
28189;DHT22;15471;51.166;4.470;2022-12-15T14:30:27;2.00;99.90
28189;DHT22;15471;51.166;4.470;2022-12-15T14:33:14;2.00;99.90
28189;DHT22;15471;51.166;4.470;2022-12-15T14:35:46;2.00;99.90
28189;DHT22;15471;51.166;4.470;2022-12-15T14:38:22;1.90;99.90
28189;DHT22;15471;51.166;4.470;2022-12-15T14:40:51;1.90;99.90
28189;DHT22;15471;51.166;4.470;2022-12-15T14:43:31;1.80;99.90
28189;DHT22;15471;51.166;4.470;2022-12-15T14:46:16;1.80;99.90
28189;DHT22;15471;51.166;4.470;2022-12-15T14:48:49;1.70;99.90
28189;DHT22;15471;51.166;4.470;2022-12-15T14:51:16;1.70;99.90
28189;DHT22;15471;51.166;4.470;2022-12-15T14:53:50;1.60;99.90
28189;DHT22;15471;51.166;4.470;2022-12-15T14:59:02;1.70;99.90
28189;DHT22;15471;51.166;4.470;2022-12-15T15:04:25;1.50;99.90
28189;DHT22;15471;51.166;4.470;2022-12-15T15:06:54;1.40;99.90
28189;DHT22;15471;51.166;4.470;2022-12-15T15:09:25;1.30;99.90
28189;DHT22;15471;51.166;4.470;2022-12-15T15:12:21;1.20;99.90
28189;DHT22;15471;51.166;4.470;2022-12-15T15:17:36;1.10;99.90
28189;DHT22;15471;51.166;4.470;2022-12-15T15:20:27;0.90;99.90
28189;DHT22;15471;51.166;4.470;2022-12-15T15:25:56;0.80;99.90
28189;DHT22;15471;51.166;4.470;2022-12-15T15:28:39;0.70;99.90
28189;DHT22;15471;51.166;4.470;2022-12-15T15:33:55;0.70;99.90
28189;DHT22;15471;51.166;4.470;2022-12-15T15:36:31;0.60;99.90
28189;DHT22;15471;51.166;4.470;2022-12-15T15:38:58;0.60;99.90
28189;DHT22;15471;51.166;4.470;2022-12-15T15:41:30;0.50;99.90
28189;DHT22;15471;51.166;4.470;2022-12-15T15:43:57;0.40;99.90
28189;DHT22;15471;51.166;4.470;2022-12-15T15:46:30;0.40;99.90
28189;DHT22;15471;51.166;4.470;2022-12-15T15:49:02;0.30;99.90
28189;DHT22;15471;51.166;4.470;2022-12-15T15:51:31;0.30;99.90
28189;DHT22;15471;51.166;4.470;2022-12-15T15:54:00;0.20;99.90
28189;DHT22;15471;51.166;4.470;2022-12-15T15:56:27;0.10;99.90
28189;DHT22;15471;51.166;4.470;2022-12-15T15:58:59;0.10;99.90
28189;DHT22;15471;51.166;4.470;2022-12-15T16:01:27;0.00;99.90
28189;DHT22;15471;51.166;4.470;2022-12-15T16:03:52;0.00;99.90
28189;DHT22;15471;51.166;4.470;2022-12-15T16:06:19;-0.10;99.90
28189;DHT22;15471;51.166;4.470;2022-12-15T16:08:49;-0.10;99.90
28189;DHT22;15471;51.166;4.470;2022-12-15T16:11:16;-0.20;99.90
28189;DHT22;15471;51.166;4.470;2022-12-15T16:13:42;-0.20;99.90
28189;DHT22;15471;51.166;4.470;2022-12-15T16:16:23;-0.30;99.90
28189;DHT22;15471;51.166;4.470;2022-12-15T16:18:49;-0.40;99.90
28189;DHT22;15471;51.166;4.470;2022-12-15T16:21:15;-0.40;99.90
28189;DHT22;15471;51.166;4.470;2022-12-15T16:23:45;-0.50;99.90
28189;DHT22;15471;51.166;4.470;2022-12-15T16:26:14;-0.50;99.90
28189;DHT22;15471;51.166;4.470;2022-12-15T16:28:41;-0.60;99.90
28189;DHT22;15471;51.166;4.470;2022-12-15T16:31:13;-0.60;99.90
28189;DHT22;15471;51.166;4.470;2022-12-15T16:33:40;-0.60;99.90
28189;DHT22;15471;51.166;4.470;2022-12-15T16:36:12;-0.70;99.90
28189;DHT22;15471;51.166;4.470;2022-12-15T16:38:39;-0.80;99.90
28189;DHT22;15471;51.166;4.470;2022-12-15T16:41:06;-0.80;99.90
28189;DHT22;15471;51.166;4.470;2022-12-15T16:43:33;-0.90;99.90
28189;DHT22;15471;51.166;4.470;2022-12-15T16:45:59;-0.90;99.90
28189;DHT22;15471;51.166;4.470;2022-12-15T16:48:26;-0.90;99.90
28189;DHT22;15471;51.166;4.470;2022-12-15T16:50:56;-1.00;99.90
28189;DHT22;15471;51.166;4.470;2022-12-15T16:53:28;-1.00;99.90
28189;DHT22;15471;51.166;4.470;2022-12-15T16:55:57;-1.00;99.90
28189;DHT22;15471;51.166;4.470;2022-12-15T16:58:24;-1.10;99.90
28189;DHT22;15471;51.166;4.470;2022-12-15T17:00:51;-1.00;99.90
28189;DHT22;15471;51.166;4.470;2022-12-15T17:03:20;-1.20;99.90
28189;DHT22;15471;51.166;4.470;2022-12-15T17:05:56;-1.20;99.90
28189;DHT22;15471;51.166;4.470;2022-12-15T17:08:26;-1.20;99.90
28189;DHT22;15471;51.166;4.470;2022-12-15T17:10:54;-1.20;99.90
28189;DHT22;15471;51.166;4.470;2022-12-15T17:13:28;-1.30;99.90
28189;DHT22;15471;51.166;4.470;2022-12-15T17:15:56;-1.30;99.90
28189;DHT22;15471;51.166;4.470;2022-12-15T17:18:24;-1.40;99.90
28189;DHT22;15471;51.166;4.470;2022-12-15T17:20:50;-1.40;99.90
28189;DHT22;15471;51.166;4.470;2022-12-15T17:23:21;-1.40;99.90
28189;DHT22;15471;51.166;4.470;2022-12-15T17:25:48;-1.40;99.90
28189;DHT22;15471;51.166;4.470;2022-12-15T17:28:26;-1.40;99.90
28189;DHT22;15471;51.166;4.470;2022-12-15T17:30:53;-1.40;99.90
28189;DHT22;15471;51.166;4.470;2022-12-15T17:33:24;-1.40;99.90
28189;DHT22;15471;51.166;4.470;2022-12-15T17:35:51;-1.50;99.90
28189;DHT22;15471;51.166;4.470;2022-12-15T17:38:19;-1.50;99.90
28189;DHT22;15471;51.166;4.470;2022-12-15T17:40:47;-1.60;99.90
28189;DHT22;15471;51.166;4.470;2022-12-15T17:43:26;-1.60;99.90
28189;DHT22;15471;51.166;4.470;2022-12-15T17:45:52;-1.60;99.90
28189;DHT22;15471;51.166;4.470;2022-12-15T17:48:21;-1.70;99.90
28189;DHT22;15471;51.166;4.470;2022-12-15T17:50:48;-1.60;99.90
28189;DHT22;15471;51.166;4.470;2022-12-15T17:53:21;-1.80;99.90
28189;DHT22;15471;51.166;4.470;2022-12-15T17:55:47;-1.80;99.90
28189;DHT22;15471;51.166;4.470;2022-12-15T17:58:23;-1.80;99.90
28189;DHT22;15471;51.166;4.470;2022-12-15T18:00:52;-1.80;99.90
28189;DHT22;15471;51.166;4.470;2022-12-15T18:03:22;-1.80;99.90
28189;DHT22;15471;51.166;4.470;2022-12-15T18:05:50;-1.80;99.90
28189;DHT22;15471;51.166;4.470;2022-12-15T18:08:19;-1.80;99.90